ESGG/GOT METAR and TAF weather

Enter ICAO airport designator
Station Type Date Time Source
ESGG METAR 2022/01/18 06:50 UTC NOAA

ESGG 180650Z 21009KT CAVOK M02/M04 Q1028


Station Type Date Time Source
ESGG Decoded METAR 2022/01/18 06:50 UTC NOAA

Goteborg / Landvetter, Sweden (ESGG) 57-40N 012-18E
Jan 18, 2022 - 01:50 AM EST / 2022.01.18 0650 UTC
Wind: from the SSW (210 degrees) at 10 MPH (9 KT):0
Visibility: greater than 7 mile(s):0
Temperature: 28 F (-2 C)
Windchill: 19 F (-7 C):1
Dew Point: 24 F (-4 C)
Relative Humidity: 86%
Pressure (altimeter): 30.36 in. Hg (1028 hPa)
ob: ESGG 180650Z 21009KT CAVOK M02/M04 Q1028
cycle: 7

Station Type Date Time Source
ESGG TAF 2022/01/18 06:18 UTC NOAA

TAF TAF ESGG 180530Z 1806/1906 17006KT CAVOK
BECMG 1806/1808 1200 BR OVC002
TEMPO 1809/1813 6000
BECMG 1810/1812 25010KT
BECMG 1813/1815 9000 NSW BKN010 PROB40 1815/1906 4000 BR BKN004

Example: see airport list